createdAt,value
2023-03-27T00:04:38.339Z,100.00
2023-03-27T00:09:44.473Z,100.00
2023-03-27T00:14:49.748Z,100.00
2023-03-27T00:19:52.843Z,100.00
2023-03-27T00:24:57.221Z,100.00
2023-03-27T00:30:00.296Z,100.00
2023-03-27T00:35:03.751Z,100.00
2023-03-27T00:40:15.657Z,100.00
2023-03-27T00:45:20.506Z,100.00
2023-03-27T00:50:27.305Z,100.00
2023-03-27T00:55:36.967Z,100.00
2023-03-27T01:00:40.602Z,100.00
2023-03-27T01:05:44.549Z,100.00
2023-03-27T01:10:59.169Z,100.00
2023-03-27T01:16:07.208Z,100.00
2023-03-27T01:21:46.844Z,100.00
2023-03-27T01:27:08.153Z,100.00
2023-03-27T01:32:40.427Z,100.00
2023-03-27T01:38:12.038Z,100.00
2023-03-27T01:43:20.578Z,100.00
2023-03-27T01:48:29.568Z,100.00
2023-03-27T01:53:37.155Z,100.00
2023-03-27T01:58:46.442Z,100.00
2023-03-27T02:03:56.301Z,100.00
2023-03-27T02:09:02.176Z,100.00
2023-03-27T02:14:13.429Z,100.00
2023-03-27T02:19:23.293Z,100.00
2023-03-27T02:24:26.368Z,100.00
2023-03-27T02:29:55.019Z,100.00
2023-03-27T02:35:10.125Z,100.00
2023-03-27T02:40:25.870Z,100.00
2023-03-27T02:45:47.553Z,100.00
2023-03-27T02:50:57.045Z,100.00
2023-03-27T02:56:03.662Z,100.00
2023-03-27T03:01:10.994Z,100.00
2023-03-27T03:06:30.769Z,100.00
2023-03-27T03:11:36.286Z,100.00
2023-03-27T03:16:40.835Z,100.00
2023-03-27T03:21:43.828Z,100.00
2023-03-27T03:26:50.313Z,100.00
2023-03-27T03:31:55.504Z,100.00
2023-03-27T03:36:58.603Z,100.00
2023-03-27T03:42:06.545Z,100.00
2023-03-27T03:47:11.082Z,100.00
2023-03-27T03:52:14.521Z,100.00
2023-03-27T03:57:18.610Z,100.00
2023-03-27T04:02:37.648Z,100.00
2023-03-27T04:07:45.788Z,100.00
2023-03-27T04:13:17.978Z,100.00
2023-03-27T04:18:35.043Z,100.00
2023-03-27T04:23:43.517Z,100.00
2023-03-27T04:28:47.214Z,100.00
2023-03-27T04:34:12.265Z,100.00
2023-03-27T04:39:43.041Z,100.00
2023-03-27T04:44:47.703Z,100.00
2023-03-27T04:49:53.169Z,100.00
2023-03-27T04:55:01.644Z,100.00
2023-03-27T05:00:14.591Z,100.00
2023-03-27T05:05:19.454Z,100.00
2023-03-27T05:10:23.222Z,100.00
2023-03-27T05:15:28.093Z,100.00
2023-03-27T05:20:34.448Z,100.00
2023-03-27T05:25:45.408Z,100.00
2023-03-27T05:31:10.983Z,100.00
2023-03-27T05:36:28.577Z,100.00
2023-03-27T05:41:31.934Z,100.00
2023-03-27T05:46:37.745Z,100.00
2023-03-27T05:51:51.556Z,100.00
2023-03-27T05:56:56.981Z,100.00
2023-03-27T06:02:01.009Z,100.00
2023-03-27T06:07:18.220Z,100.00
2023-03-27T06:12:21.616Z,100.00
2023-03-27T06:17:28.237Z,100.00
2023-03-27T06:22:40.499Z,100.00
2023-03-27T06:27:43.934Z,100.00
2023-03-27T06:32:50.244Z,100.00
2023-03-27T06:37:56.646Z,100.00
2023-03-27T06:43:02.313Z,100.00
2023-03-27T06:48:20.605Z,100.00
2023-03-27T06:53:28.609Z,100.00
2023-03-27T06:58:32.707Z,100.00
2023-03-27T07:03:35.736Z,100.00
2023-03-27T07:08:40.145Z,100.00
2023-03-27T07:13:43.486Z,100.00
2023-03-27T07:18:58.365Z,100.00
2023-03-27T07:24:06.316Z,100.00
2023-03-27T07:29:14.350Z,100.00
2023-03-27T07:34:21.637Z,100.00
2023-03-27T07:39:58.750Z,100.00
2023-03-27T07:45:04.657Z,100.00
2023-03-27T07:50:11.596Z,100.00
2023-03-27T07:55:19.678Z,100.00
2023-03-27T08:00:35.939Z,100.00
2023-03-27T08:05:56.129Z,100.00
2023-03-27T08:11:04.386Z,100.00
2023-03-27T08:16:17.165Z,100.00
2023-03-27T08:21:21.103Z,100.00
2023-03-27T08:26:27.887Z,100.00
2023-03-27T08:31:37.311Z,100.00
2023-03-27T08:36:41.750Z,100.00
2023-03-27T08:41:55.137Z,100.00
2023-03-27T08:47:10.588Z,100.00
2023-03-27T08:52:23.795Z,100.00
2023-03-27T08:57:32.783Z,100.00
2023-03-27T09:02:51.497Z,100.00
2023-03-27T09:08:03.082Z,100.00
2023-03-27T09:13:16.576Z,100.00
2023-03-27T09:18:25.575Z,100.00
2023-03-27T09:23:36.139Z,100.00
2023-03-27T09:29:01.942Z,100.00
2023-03-27T09:34:20.293Z,100.00
2023-03-27T09:39:29.015Z,100.00
2023-03-27T09:44:50.474Z,100.00
2023-03-27T09:49:59.498Z,100.00
2023-03-27T09:55:30.186Z,100.00
2023-03-27T10:00:38.308Z,100.00
2023-03-27T10:05:42.842Z,98.55
2023-03-27T10:10:46.509Z,95.61
2023-03-27T10:16:07.065Z,96.38
2023-03-27T10:21:27.505Z,94.54
2023-03-27T10:26:33.541Z,91.68
2023-03-27T10:31:39.860Z,86.23
2023-03-27T10:36:50.954Z,84.27
2023-03-27T10:41:57.586Z,88.19
2023-03-27T10:47:05.036Z,87.30
2023-03-27T10:52:19.410Z,81.69
2023-03-27T10:57:54.425Z,75.84
2023-03-27T11:03:09.741Z,77.48
2023-03-27T11:08:19.857Z,94.07
2023-03-27T11:13:28.135Z,97.23
2023-03-27T11:18:41.769Z,100.00
2023-03-27T11:23:52.207Z,100.00
2023-03-27T11:29:09.590Z,100.00
2023-03-27T11:34:35.022Z,100.00
2023-03-27T11:40:01.633Z,100.00
2023-03-27T11:45:09.454Z,96.82
2023-03-27T11:50:32.572Z,94.77
2023-03-27T11:55:49.627Z,93.00
2023-03-27T12:01:01.899Z,84.35
2023-03-27T12:06:18.008Z,83.42
2023-03-27T12:11:23.430Z,84.35
2023-03-27T12:17:00.329Z,84.97
2023-03-27T12:22:30.364Z,94.69
2023-03-27T12:27:57.976Z,94.68
2023-03-27T12:33:52.707Z,89.78
2023-03-27T12:38:59.291Z,93.22
2023-03-27T12:44:07.032Z,82.23
2023-03-27T12:49:48.110Z,80.62
2023-03-27T12:55:29.735Z,70.55
2023-03-27T13:00:34.612Z,71.58
2023-03-27T13:05:52.255Z,74.26
2023-03-27T13:11:19.570Z,67.83
2023-03-27T13:16:47.300Z,64.45
2023-03-27T13:22:08.271Z,66.58
2023-03-27T13:27:29.958Z,65.51
2023-03-27T13:32:37.522Z,64.69
2023-03-27T13:38:10.719Z,62.17
2023-03-27T13:43:35.918Z,63.16
2023-03-27T13:49:32.468Z,62.92
2023-03-27T13:55:19.637Z,59.00
2023-03-27T14:01:01.196Z,79.34
2023-03-27T14:06:28.213Z,86.50
2023-03-27T14:11:46.020Z,88.11
2023-03-27T14:17:33.217Z,90.59
2023-03-27T14:22:43.536Z,94.78
2023-03-27T14:27:55.042Z,97.58
2023-03-27T14:33:08.075Z,98.91
2023-03-27T14:38:22.612Z,98.01
2023-03-27T14:43:29.168Z,93.73
2023-03-27T14:48:37.470Z,97.73
2023-03-27T14:53:52.362Z,92.05
2023-03-27T14:59:02.157Z,91.01
2023-03-27T15:04:20.366Z,78.72
2023-03-27T15:09:24.951Z,76.63
2023-03-27T15:14:32.304Z,75.97
2023-03-27T15:19:45.863Z,79.06
2023-03-27T15:25:00.192Z,81.75
2023-03-27T15:30:07.938Z,75.73
2023-03-27T15:35:18.121Z,78.81
2023-03-27T15:40:36.898Z,68.37
2023-03-27T15:45:41.636Z,66.40
2023-03-27T15:50:56.968Z,68.70
2023-03-27T15:56:01.580Z,73.88
2023-03-27T16:01:18.625Z,72.92
2023-03-27T16:06:33.601Z,72.39
2023-03-27T16:11:42.909Z,72.01
2023-03-27T16:16:46.217Z,76.90
2023-03-27T16:21:58.386Z,72.97
2023-03-27T16:27:01.503Z,73.17
2023-03-27T16:32:05.071Z,69.22
2023-03-27T16:37:09.930Z,68.32
2023-03-27T16:42:16.228Z,71.77
2023-03-27T16:47:20.509Z,74.57
2023-03-27T16:52:25.122Z,76.41
2023-03-27T16:57:28.313Z,80.94
2023-03-27T17:02:34.156Z,81.30
2023-03-27T17:07:41.886Z,82.03
2023-03-27T17:12:45.036Z,80.34
2023-03-27T17:17:50.300Z,78.11
2023-03-27T17:22:54.866Z,76.06
2023-03-27T17:27:58.269Z,78.29
2023-03-27T17:33:01.685Z,72.32
2023-03-27T17:38:09.060Z,76.24
2023-03-27T17:43:12.511Z,76.15
2023-03-27T17:48:16.018Z,77.03
2023-03-27T17:53:21.159Z,79.57
2023-03-27T17:58:26.377Z,78.50
2023-03-27T18:03:29.527Z,77.15
2023-03-27T18:08:34.222Z,80.08
2023-03-27T18:13:37.820Z,80.30
2023-03-27T18:18:41.355Z,81.92
2023-03-27T18:23:53.410Z,84.34
2023-03-27T18:28:57.888Z,87.54
2023-03-27T18:34:01.333Z,88.31
2023-03-27T18:39:06.671Z,88.77
2023-03-27T18:44:09.874Z,88.99
2023-03-27T18:49:23.493Z,90.98
2023-03-27T18:54:29.531Z,91.26
2023-03-27T18:59:32.719Z,91.41
2023-03-27T19:04:36.033Z,91.85
2023-03-27T19:09:41.857Z,92.17
2023-03-27T19:14:45.556Z,92.40
2023-03-27T19:20:11.219Z,93.82
2023-03-27T19:25:28.680Z,93.36
2023-03-27T19:30:32.421Z,93.71
2023-03-27T19:35:37.982Z,93.64
2023-03-27T19:40:42.575Z,93.06
2023-03-27T19:46:04.381Z,93.19
2023-03-27T19:51:16.701Z,94.06
2023-03-27T19:56:21.217Z,94.99
2023-03-27T20:01:28.547Z,95.17
2023-03-27T20:06:31.691Z,95.33
2023-03-27T20:11:38.015Z,95.22
2023-03-27T20:16:43.519Z,95.37
2023-03-27T20:21:46.736Z,95.31
2023-03-27T20:26:57.117Z,95.45
2023-03-27T20:32:01.675Z,95.97
2023-03-27T20:37:11.786Z,96.76
2023-03-27T20:42:27.602Z,96.38
2023-03-27T20:47:41.483Z,97.08
2023-03-27T20:52:45.834Z,97.36
2023-03-27T20:57:53.537Z,97.04
2023-03-27T21:02:56.881Z,97.16
2023-03-27T21:08:00.203Z,96.71
2023-03-27T21:13:05.762Z,97.45
2023-03-27T21:18:08.917Z,97.22
2023-03-27T21:23:12.469Z,98.08
2023-03-27T21:28:17.200Z,98.30
2023-03-27T21:33:20.437Z,98.52
2023-03-27T21:38:23.524Z,98.20
2023-03-27T21:43:28.201Z,98.34
2023-03-27T21:48:31.383Z,98.41
2023-03-27T21:53:34.687Z,98.74
2023-03-27T21:58:39.082Z,99.12
2023-03-27T22:03:42.189Z,99.55
2023-03-27T22:08:47.294Z,100.00
2023-03-27T22:13:54.976Z,100.00
2023-03-27T22:18:59.398Z,100.00
2023-03-27T22:24:05.733Z,100.00
2023-03-27T22:29:10.719Z,100.00
2023-03-27T22:34:13.815Z,100.00
2023-03-27T22:39:16.913Z,100.00
2023-03-27T22:44:21.558Z,100.00
2023-03-27T22:49:24.697Z,100.00
2023-03-27T22:54:27.903Z,100.00
2023-03-27T22:59:32.239Z,100.00
2023-03-27T23:04:35.911Z,100.00
2023-03-27T23:09:39.597Z,100.00
2023-03-27T23:14:44.223Z,100.00
2023-03-27T23:19:47.342Z,100.00
2023-03-27T23:24:50.452Z,100.00
2023-03-27T23:29:54.889Z,100.00
2023-03-27T23:34:57.955Z,100.00
2023-03-27T23:40:01.035Z,100.00
2023-03-27T23:45:05.996Z,100.00
2023-03-27T23:50:09.701Z,100.00
2023-03-27T23:55:12.726Z,100.00
